sensor_id;sensor_type;location;lat;lon;timestamp;pressure;altitude;pressure_sealevel;temperature;humidity
46846;BME280;33947;46.804;134.252;2023-05-12T00:02:23;101153.63;;;25.36;29.37
46846;BME280;33947;46.804;134.252;2023-05-12T00:05:27;101151.81;;;25.48;29.15
46846;BME280;33947;46.804;134.252;2023-05-12T00:08:33;101141.16;;;25.44;28.63
46846;BME280;33947;46.804;134.252;2023-05-12T00:11:38;101161.09;;;25.56;28.35
46846;BME280;33947;46.804;134.252;2023-05-12T00:14:42;101128.19;;;25.82;27.98
46846;BME280;33947;46.804;134.252;2023-05-12T00:17:48;101151.34;;;24.84;27.69
46846;BME280;33947;46.804;134.252;2023-05-12T00:20:53;101142.56;;;24.20;28.17
46846;BME280;33947;46.804;134.252;2023-05-12T00:23:59;101136.63;;;24.15;29.04
46846;BME280;33947;46.804;134.252;2023-05-12T00:27:09;101133.00;;;24.39;28.40
46846;BME280;33947;46.804;134.252;2023-05-12T00:30:13;101124.78;;;24.52;28.21
46846;BME280;33947;46.804;134.252;2023-05-12T00:33:18;101145.09;;;25.18;27.47
46846;BME280;33947;46.804;134.252;2023-05-12T00:36:22;101113.34;;;25.07;28.09
46846;BME280;33947;46.804;134.252;2023-05-12T00:39:26;101121.84;;;25.13;27.95
46846;BME280;33947;46.804;134.252;2023-05-12T00:42:32;101109.59;;;24.85;27.91
46846;BME280;33947;46.804;134.252;2023-05-12T00:45:42;101117.28;;;25.82;27.26
46846;BME280;33947;46.804;134.252;2023-05-12T00:48:57;101109.56;;;25.99;26.48
46846;BME280;33947;46.804;134.252;2023-05-12T00:52:03;101110.03;;;25.60;26.33
46846;BME280;33947;46.804;134.252;2023-05-12T00:55:07;101086.78;;;24.99;26.73
46846;BME280;33947;46.804;134.252;2023-05-12T00:58:12;101119.13;;;24.91;27.47
46846;BME280;33947;46.804;134.252;2023-05-12T01:01:19;101121.19;;;24.16;28.44
46846;BME280;33947;46.804;134.252;2023-05-12T01:04:32;101106.59;;;24.41;28.09
46846;BME280;33947;46.804;134.252;2023-05-12T01:07:41;101111.22;;;24.99;28.03
46846;BME280;33947;46.804;134.252;2023-05-12T01:10:48;101085.38;;;24.10;28.62
46846;BME280;33947;46.804;134.252;2023-05-12T01:13:53;101097.16;;;24.22;28.55
46846;BME280;33947;46.804;134.252;2023-05-12T01:17:01;101101.22;;;24.52;28.56
46846;BME280;33947;46.804;134.252;2023-05-12T01:20:16;101109.44;;;24.39;28.63
46846;BME280;33947;46.804;134.252;2023-05-12T01:23:34;101099.97;;;24.45;28.81
46846;BME280;33947;46.804;134.252;2023-05-12T01:27:08;101097.63;;;24.99;28.13
46846;BME280;33947;46.804;134.252;2023-05-12T01:30:16;101097.16;;;25.62;27.17
46846;BME280;33947;46.804;134.252;2023-05-12T01:33:21;101070.00;;;26.27;26.76
46846;BME280;33947;46.804;134.252;2023-05-12T01:36:26;101084.13;;;27.37;25.89
46846;BME280;33947;46.804;134.252;2023-05-12T01:39:33;101081.13;;;26.99;25.72
46846;BME280;33947;46.804;134.252;2023-05-12T01:42:41;101085.84;;;26.34;26.37
46846;BME280;33947;46.804;134.252;2023-05-12T01:45:49;101084.38;;;25.74;26.17
46846;BME280;33947;46.804;134.252;2023-05-12T01:49:14;100996.94;;;24.66;26.88
46846;BME280;33947;46.804;134.252;2023-05-12T01:52:23;101044.34;;;25.76;26.36
46846;BME280;33947;46.804;134.252;2023-05-12T01:55:31;101069.38;;;25.91;25.71
46846;BME280;33947;46.804;134.252;2023-05-12T01:58:40;101062.13;;;25.80;26.82
46846;BME280;33947;46.804;134.252;2023-05-12T02:01:46;101024.13;;;25.46;26.39
46846;BME280;33947;46.804;134.252;2023-05-12T02:04:57;101056.38;;;25.51;26.55
46846;BME280;33947;46.804;134.252;2023-05-12T02:08:04;101026.72;;;25.13;26.56
46846;BME280;33947;46.804;134.252;2023-05-12T02:11:10;101045.25;;;25.08;26.57
46846;BME280;33947;46.804;134.252;2023-05-12T02:14:14;101032.03;;;24.92;26.67
46846;BME280;33947;46.804;134.252;2023-05-12T02:17:19;101014.94;;;24.56;26.88
46846;BME280;33947;46.804;134.252;2023-05-12T02:20:24;101036.75;;;25.02;26.30
46846;BME280;33947;46.804;134.252;2023-05-12T02:23:31;101029.75;;;24.52;26.56
46846;BME280;33947;46.804;134.252;2023-05-12T02:26:35;101019.25;;;24.47;26.54
46846;BME280;33947;46.804;134.252;2023-05-12T02:29:40;101015.88;;;24.32;23.94
46846;BME280;33947;46.804;134.252;2023-05-12T02:32:47;101023.44;;;24.04;23.89
46846;BME280;33947;46.804;134.252;2023-05-12T02:36:00;101022.38;;;23.94;24.16
46846;BME280;33947;46.804;134.252;2023-05-12T02:39:04;101027.13;;;23.79;24.49
46846;BME280;33947;46.804;134.252;2023-05-12T02:42:09;101018.09;;;23.78;25.11
46846;BME280;33947;46.804;134.252;2023-05-12T02:45:14;101020.66;;;23.93;25.47
46846;BME280;33947;46.804;134.252;2023-05-12T02:48:20;101003.63;;;24.15;24.70
46846;BME280;33947;46.804;134.252;2023-05-12T02:51:27;100927.13;;;23.50;25.28
46846;BME280;33947;46.804;134.252;2023-05-12T02:54:49;101015.31;;;24.04;24.71
46846;BME280;33947;46.804;134.252;2023-05-12T02:57:57;101005.59;;;23.89;24.40
46846;BME280;33947;46.804;134.252;2023-05-12T03:01:04;100993.47;;;23.57;23.71
46846;BME280;33947;46.804;134.252;2023-05-12T03:04:15;100943.41;;;23.25;23.40
46846;BME280;33947;46.804;134.252;2023-05-12T03:07:29;100958.97;;;23.35;22.99
46846;BME280;33947;46.804;134.252;2023-05-12T03:10:39;100938.13;;;23.11;23.14
46846;BME280;33947;46.804;134.252;2023-05-12T03:13:51;100928.19;;;22.86;23.11
46846;BME280;33947;46.804;134.252;2023-05-12T03:17:38;100957.47;;;23.31;23.00
46846;BME280;33947;46.804;134.252;2023-05-12T03:20:47;100944.16;;;23.15;23.10
46846;BME280;33947;46.804;134.252;2023-05-12T03:23:51;100972.75;;;23.19;22.31
46846;BME280;33947;46.804;134.252;2023-05-12T03:26:56;100929.84;;;22.75;22.48
46846;BME280;33947;46.804;134.252;2023-05-12T03:30:05;100956.22;;;22.97;22.22
46846;BME280;33947;46.804;134.252;2023-05-12T03:33:11;100950.28;;;22.92;22.17
46846;BME280;33947;46.804;134.252;2023-05-12T03:36:17;100915.47;;;22.62;21.27
46846;BME280;33947;46.804;134.252;2023-05-12T03:39:30;100881.47;;;22.58;21.55
46846;BME280;33947;46.804;134.252;2023-05-12T03:42:44;100939.66;;;23.02;22.39
46846;BME280;33947;46.804;134.252;2023-05-12T03:45:51;100924.25;;;23.03;22.40
46846;BME280;33947;46.804;134.252;2023-05-12T03:49:00;100930.78;;;23.00;21.84
46846;BME280;33947;46.804;134.252;2023-05-12T03:52:27;100914.31;;;22.90;22.52
46846;BME280;33947;46.804;134.252;2023-05-12T03:55:31;100924.91;;;23.06;22.25
46846;BME280;33947;46.804;134.252;2023-05-12T03:58:45;100883.28;;;22.31;22.31
46846;BME280;33947;46.804;134.252;2023-05-12T04:01:57;100889.38;;;22.61;22.17
46846;BME280;33947;46.804;134.252;2023-05-12T04:05:05;100870.94;;;22.66;22.09
46846;BME280;33947;46.804;134.252;2023-05-12T04:08:10;100902.91;;;23.11;21.97
46846;BME280;33947;46.804;134.252;2023-05-12T04:11:17;100901.25;;;22.84;22.19
46846;BME280;33947;46.804;134.252;2023-05-12T04:14:24;100892.44;;;22.93;21.88
46846;BME280;33947;46.804;134.252;2023-05-12T04:17:41;100874.25;;;22.82;21.92
46846;BME280;33947;46.804;134.252;2023-05-12T04:20:55;100882.38;;;22.82;21.96
46846;BME280;33947;46.804;134.252;2023-05-12T04:23:59;100883.50;;;23.04;21.63
46846;BME280;33947;46.804;134.252;2023-05-12T04:27:07;100865.34;;;22.93;21.26
46846;BME280;33947;46.804;134.252;2023-05-12T04:30:14;100863.94;;;22.88;20.17
46846;BME280;33947;46.804;134.252;2023-05-12T04:33:20;100863.31;;;22.84;20.25
46846;BME280;33947;46.804;134.252;2023-05-12T04:36:24;100857.41;;;22.66;20.46
46846;BME280;33947;46.804;134.252;2023-05-12T04:39:31;100845.94;;;22.87;20.15
46846;BME280;33947;46.804;134.252;2023-05-12T04:42:35;100840.47;;;22.75;20.35
46846;BME280;33947;46.804;134.252;2023-05-12T04:45:41;100821.56;;;22.87;20.98
46846;BME280;33947;46.804;134.252;2023-05-12T04:48:49;100815.03;;;22.78;20.93
46846;BME280;33947;46.804;134.252;2023-05-12T04:51:56;100793.03;;;22.69;20.91
46846;BME280;33947;46.804;134.252;2023-05-12T04:55:08;100830.06;;;22.82;21.12
46846;BME280;33947;46.804;134.252;2023-05-12T04:58:13;100796.22;;;22.88;20.86
46846;BME280;33947;46.804;134.252;2023-05-12T05:01:21;100821.66;;;22.98;20.57
46846;BME280;33947;46.804;134.252;2023-05-12T05:04:32;100785.84;;;22.81;20.68
46846;BME280;33947;46.804;134.252;2023-05-12T05:07:41;100806.63;;;22.94;20.59
46846;BME280;33947;46.804;134.252;2023-05-12T05:10:53;100805.03;;;23.03;20.39
46846;BME280;33947;46.804;134.252;2023-05-12T05:14:06;100770.84;;;22.89;19.81
46846;BME280;33947;46.804;134.252;2023-05-12T05:17:13;100794.00;;;23.30;18.69
46846;BME280;33947;46.804;134.252;2023-05-12T05:20:20;100776.50;;;22.86;18.40
46846;BME280;33947;46.804;134.252;2023-05-12T05:23:32;100787.69;;;23.05;18.85
46846;BME280;33947;46.804;134.252;2023-05-12T05:26:43;100773.41;;;23.03;18.75
46846;BME280;33947;46.804;134.252;2023-05-12T05:29:51;100767.41;;;22.87;18.68
46846;BME280;33947;46.804;134.252;2023-05-12T05:32:55;100765.44;;;22.89;18.88
46846;BME280;33947;46.804;134.252;2023-05-12T05:36:02;100770.84;;;22.89;19.14
46846;BME280;33947;46.804;134.252;2023-05-12T05:39:07;100749.56;;;22.84;19.52
46846;BME280;33947;46.804;134.252;2023-05-12T05:42:22;100755.78;;;23.09;19.46
46846;BME280;33947;46.804;134.252;2023-05-12T05:45:41;100750.84;;;23.03;19.49
46846;BME280;33947;46.804;134.252;2023-05-12T05:48:56;100748.44;;;23.11;19.33
46846;BME280;33947;46.804;134.252;2023-05-12T05:52:03;100736.19;;;22.94;18.97
46846;BME280;33947;46.804;134.252;2023-05-12T05:55:07;100740.81;;;23.16;18.98
46846;BME280;33947;46.804;134.252;2023-05-12T05:58:14;100722.59;;;23.18;18.55
46846;BME280;33947;46.804;134.252;2023-05-12T06:01:32;100707.38;;;22.93;18.65
46846;BME280;33947;46.804;134.252;2023-05-12T06:04:41;100731.38;;;22.97;18.56
46846;BME280;33947;46.804;134.252;2023-05-12T06:07:45;100711.00;;;22.80;18.74
46846;BME280;33947;46.804;134.252;2023-05-12T06:10:51;100717.22;;;22.94;17.94
46846;BME280;33947;46.804;134.252;2023-05-12T06:13:57;100713.63;;;22.93;18.63
46846;BME280;33947;46.804;134.252;2023-05-12T06:17:01;100704.94;;;23.01;18.55
46846;BME280;33947;46.804;134.252;2023-05-12T06:20:06;100714.97;;;22.88;18.61
46846;BME280;33947;46.804;134.252;2023-05-12T06:23:11;100709.16;;;22.81;18.82
46846;BME280;33947;46.804;134.252;2023-05-12T06:26:15;100707.31;;;22.81;19.20
46846;BME280;33947;46.804;134.252;2023-05-12T06:29:19;100706.72;;;22.89;19.27
46846;BME280;33947;46.804;134.252;2023-05-12T06:32:23;100695.56;;;22.94;18.86
46846;BME280;33947;46.804;134.252;2023-05-12T06:35:27;100694.19;;;22.99;18.44
46846;BME280;33947;46.804;134.252;2023-05-12T06:38:34;100694.69;;;22.93;17.31
46846;BME280;33947;46.804;134.252;2023-05-12T06:41:38;100668.78;;;22.53;18.13
46846;BME280;33947;46.804;134.252;2023-05-12T06:44:54;100686.00;;;22.52;18.48
46846;BME280;33947;46.804;134.252;2023-05-12T06:48:00;100674.72;;;22.83;18.54
46846;BME280;33947;46.804;134.252;2023-05-12T06:51:12;100662.56;;;22.64;18.52
46846;BME280;33947;46.804;134.252;2023-05-12T06:54:19;100644.31;;;22.55;18.93
46846;BME280;33947;46.804;134.252;2023-05-12T06:57:25;100678.75;;;22.89;18.75
46846;BME280;33947;46.804;134.252;2023-05-12T07:00:33;100676.25;;;22.74;18.49
46846;BME280;33947;46.804;134.252;2023-05-12T07:03:48;100661.09;;;22.23;18.19
46846;BME280;33947;46.804;134.252;2023-05-12T07:06:57;100653.22;;;22.20;17.81
46846;BME280;33947;46.804;134.252;2023-05-12T07:10:17;100632.38;;;22.33;16.93
46846;BME280;33947;46.804;134.252;2023-05-12T07:13:27;100676.09;;;22.40;16.85
46846;BME280;33947;46.804;134.252;2023-05-12T07:16:33;100656.34;;;22.26;17.35
46846;BME280;33947;46.804;134.252;2023-05-12T07:19:39;100669.41;;;22.33;17.76
46846;BME280;33947;46.804;134.252;2023-05-12T07:22:46;100664.28;;;22.41;17.88
46846;BME280;33947;46.804;134.252;2023-05-12T07:25:57;100657.66;;;22.21;17.95
46846;BME280;33947;46.804;134.252;2023-05-12T07:29:12;100666.19;;;22.27;18.56
46846;BME280;33947;46.804;134.252;2023-05-12T07:32:16;100657.38;;;22.37;17.69
46846;BME280;33947;46.804;134.252;2023-05-12T07:35:20;100665.06;;;22.30;17.63
46846;BME280;33947;46.804;134.252;2023-05-12T07:38:36;100659.59;;;22.19;17.13
46846;BME280;33947;46.804;134.252;2023-05-12T07:41:45;100634.00;;;22.11;18.28
46846;BME280;33947;46.804;134.252;2023-05-12T07:44:49;100656.63;;;22.10;18.39
46846;BME280;33947;46.804;134.252;2023-05-12T07:47:56;100664.31;;;22.28;18.38
46846;BME280;33947;46.804;134.252;2023-05-12T07:51:03;100632.97;;;22.01;18.00
46846;BME280;33947;46.804;134.252;2023-05-12T07:54:12;100662.47;;;22.04;18.20
46846;BME280;33947;46.804;134.252;2023-05-12T07:57:18;100642.63;;;21.79;18.01
46846;BME280;33947;46.804;134.252;2023-05-12T08:00:35;100651.94;;;21.75;18.26
46846;BME280;33947;46.804;134.252;2023-05-12T08:03:41;100654.75;;;21.74;18.59
46846;BME280;33947;46.804;134.252;2023-05-12T08:06:45;100650.66;;;21.81;18.47
46846;BME280;33947;46.804;134.252;2023-05-12T08:09:50;100615.19;;;21.60;18.63
46846;BME280;33947;46.804;134.252;2023-05-12T08:12:55;100645.75;;;21.86;18.72
46846;BME280;33947;46.804;134.252;2023-05-12T08:16:00;100645.03;;;21.71;19.16
46846;BME280;33947;46.804;134.252;2023-05-12T08:19:04;100646.22;;;21.80;19.27
46846;BME280;33947;46.804;134.252;2023-05-12T08:22:08;100615.63;;;21.66;18.97
46846;BME280;33947;46.804;134.252;2023-05-12T08:25:12;100615.81;;;21.63;19.32
46846;BME280;33947;46.804;134.252;2023-05-12T08:28:27;100613.25;;;21.49;19.50
46846;BME280;33947;46.804;134.252;2023-05-12T08:31:31;100612.50;;;21.47;20.25
46846;BME280;33947;46.804;134.252;2023-05-12T08:34:35;100599.44;;;21.40;20.06
46846;BME280;33947;46.804;134.252;2023-05-12T08:37:44;100609.44;;;21.51;20.24
46846;BME280;33947;46.804;134.252;2023-05-12T08:44:10;100579.13;;;20.96;20.79
46846;BME280;33947;46.804;134.252;2023-05-12T08:47:22;100618.81;;;21.08;21.16
46846;BME280;33947;46.804;134.252;2023-05-12T08:50:30;100595.78;;;20.90;21.21
46846;BME280;33947;46.804;134.252;2023-05-12T08:53:44;100580.94;;;20.70;21.55
46846;BME280;33947;46.804;134.252;2023-05-12T08:56:54;100621.81;;;21.17;21.25
46846;BME280;33947;46.804;134.252;2023-05-12T09:00:15;100604.31;;;20.84;22.02
46846;BME280;33947;46.804;134.252;2023-05-12T09:03:26;100611.91;;;20.77;21.94
46846;BME280;33947;46.804;134.252;2023-05-12T09:06:34;100552.91;;;20.32;22.38
46846;BME280;33947;46.804;134.252;2023-05-12T09:09:43;100587.44;;;20.39;22.33
46846;BME280;33947;46.804;134.252;2023-05-12T09:12:56;100603.75;;;20.38;22.51
46846;BME280;33947;46.804;134.252;2023-05-12T09:16:11;100601.28;;;20.35;22.64
46846;BME280;33947;46.804;134.252;2023-05-12T09:19:21;100580.47;;;20.09;23.10
46846;BME280;33947;46.804;134.252;2023-05-12T09:22:31;100607.59;;;20.21;22.95
46846;BME280;33947;46.804;134.252;2023-05-12T09:25:39;100610.56;;;20.16;22.97
46846;BME280;33947;46.804;134.252;2023-05-12T09:28:43;100602.63;;;20.00;23.50
46846;BME280;33947;46.804;134.252;2023-05-12T09:31:56;100593.88;;;19.82;23.82
46846;BME280;33947;46.804;134.252;2023-05-12T09:35:18;100599.59;;;19.63;24.17
46846;BME280;33947;46.804;134.252;2023-05-12T09:38:25;100575.28;;;19.35;24.22
46846;BME280;33947;46.804;134.252;2023-05-12T09:41:41;100601.66;;;19.45;24.51
46846;BME280;33947;46.804;134.252;2023-05-12T09:44:46;100598.78;;;19.19;25.15
46846;BME280;33947;46.804;134.252;2023-05-12T09:47:54;100572.16;;;18.69;25.70
46846;BME280;33947;46.804;134.252;2023-05-12T09:51:02;100597.91;;;18.73;25.85
46846;BME280;33947;46.804;134.252;2023-05-12T09:54:09;100602.47;;;18.57;26.57
46846;BME280;33947;46.804;134.252;2023-05-12T09:57:15;100598.91;;;18.26;27.14
46846;BME280;33947;46.804;134.252;2023-05-12T10:00:20;100555.06;;;17.77;27.81
46846;BME280;33947;46.804;134.252;2023-05-12T10:03:35;100604.03;;;17.82;28.55
46846;BME280;33947;46.804;134.252;2023-05-12T10:07:01;100590.41;;;17.53;28.80
46846;BME280;33947;46.804;134.252;2023-05-12T10:10:21;100611.47;;;17.45;29.42
46846;BME280;33947;46.804;134.252;2023-05-12T10:13:37;100583.22;;;17.04;29.77
46846;BME280;33947;46.804;134.252;2023-05-12T10:20:27;100505.16;;;16.57;29.61
46846;BME280;33947;46.804;134.252;2023-05-12T10:23:31;100579.97;;;16.97;29.50
46846;BME280;33947;46.804;134.252;2023-05-12T10:26:41;100591.44;;;17.01;29.69
46846;BME280;33947;46.804;134.252;2023-05-12T10:29:46;100547.81;;;16.62;29.78
46846;BME280;33947;46.804;134.252;2023-05-12T10:32:54;100607.44;;;16.85;30.02
46846;BME280;33947;46.804;134.252;2023-05-12T10:36:02;100597.19;;;16.40;30.88
46846;BME280;33947;46.804;134.252;2023-05-12T10:39:12;100609.00;;;16.18;32.10
46846;BME280;33947;46.804;134.252;2023-05-12T10:42:22;100611.47;;;15.66;33.96
46846;BME280;33947;46.804;134.252;2023-05-12T10:45:34;100608.38;;;15.37;34.54
46846;BME280;33947;46.804;134.252;2023-05-12T10:51:59;100624.78;;;15.48;34.28
46846;BME280;33947;46.804;134.252;2023-05-12T10:55:04;100614.13;;;15.27;35.00
46846;BME280;33947;46.804;134.252;2023-05-12T10:58:15;100608.38;;;15.16;35.24
46846;BME280;33947;46.804;134.252;2023-05-12T11:01:23;100602.09;;;14.96;35.75
46846;BME280;33947;46.804;134.252;2023-05-12T11:04:55;100622.97;;;14.67;38.17
46846;BME280;33947;46.804;134.252;2023-05-12T11:08:06;100613.56;;;14.36;37.45
46846;BME280;33947;46.804;134.252;2023-05-12T11:11:21;100626.97;;;14.12;38.05
46846;BME280;33947;46.804;134.252;2023-05-12T11:14:27;100625.44;;;13.84;38.95
46846;BME280;33947;46.804;134.252;2023-05-12T11:17:31;100637.38;;;13.74;39.80
46846;BME280;33947;46.804;134.252;2023-05-12T11:20:36;100602.28;;;13.37;40.34
46846;BME280;33947;46.804;134.252;2023-05-12T11:23:41;100650.81;;;13.49;40.81
46846;BME280;33947;46.804;134.252;2023-05-12T11:26:48;100646.94;;;13.32;41.20
46846;BME280;33947;46.804;134.252;2023-05-12T11:29:57;100664.59;;;13.11;41.87
46846;BME280;33947;46.804;134.252;2023-05-12T11:33:04;100667.44;;;13.05;43.23
46846;BME280;33947;46.804;134.252;2023-05-12T11:36:35;100664.63;;;12.84;43.73
46846;BME280;33947;46.804;134.252;2023-05-12T11:39:40;100644.03;;;12.62;43.10
46846;BME280;33947;46.804;134.252;2023-05-12T11:42:46;100666.72;;;12.74;43.21
46846;BME280;33947;46.804;134.252;2023-05-12T11:45:55;100669.47;;;12.98;42.63
46846;BME280;33947;46.804;134.252;2023-05-12T11:48:59;100670.63;;;13.16;41.63
46846;BME280;33947;46.804;134.252;2023-05-12T11:52:04;100662.09;;;12.79;43.47
46846;BME280;33947;46.804;134.252;2023-05-12T11:55:08;100647.06;;;12.51;43.20
46846;BME280;33947;46.804;134.252;2023-05-12T11:58:22;100635.06;;;12.65;43.01
46846;BME280;33947;46.804;134.252;2023-05-12T12:01:31;100656.63;;;12.57;43.26
46846;BME280;33947;46.804;134.252;2023-05-12T12:04:46;100613.28;;;12.25;43.24
46846;BME280;33947;46.804;134.252;2023-05-12T12:07:51;100641.38;;;12.35;44.08
46846;BME280;33947;46.804;134.252;2023-05-12T12:10:55;100649.09;;;12.16;45.06
46846;BME280;33947;46.804;134.252;2023-05-12T12:14:00;100642.97;;;11.82;45.66
46846;BME280;33947;46.804;134.252;2023-05-12T12:17:05;100648.88;;;11.94;45.43
46846;BME280;33947;46.804;134.252;2023-05-12T12:20:09;100653.94;;;12.03;45.51
46846;BME280;33947;46.804;134.252;2023-05-12T12:23:14;100649.84;;;11.90;45.62
46846;BME280;33947;46.804;134.252;2023-05-12T12:26:19;100650.47;;;11.39;46.71
46846;BME280;33947;46.804;134.252;2023-05-12T12:29:24;100642.97;;;11.22;47.64
46846;BME280;33947;46.804;134.252;2023-05-12T12:32:32;100648.28;;;11.22;48.00
46846;BME280;33947;46.804;134.252;2023-05-12T12:35:36;100653.19;;;11.05;48.08
46846;BME280;33947;46.804;134.252;2023-05-12T12:38:40;100650.09;;;10.87;48.74
46846;BME280;33947;46.804;134.252;2023-05-12T12:41:45;100646.75;;;10.79;48.71
46846;BME280;33947;46.804;134.252;2023-05-12T12:44:50;100648.91;;;10.64;49.42
46846;BME280;33947;46.804;134.252;2023-05-12T12:47:58;100659.47;;;10.67;49.71
46846;BME280;33947;46.804;134.252;2023-05-12T12:51:02;100656.09;;;10.61;49.54
46846;BME280;33947;46.804;134.252;2023-05-12T12:54:07;100635.78;;;10.58;49.27
46846;BME280;33947;46.804;134.252;2023-05-12T12:57:13;100660.63;;;10.57;49.84
46846;BME280;33947;46.804;134.252;2023-05-12T13:00:20;100651.25;;;10.77;48.66
46846;BME280;33947;46.804;134.252;2023-05-12T13:03:25;100642.53;;;10.71;48.99
46846;BME280;33947;46.804;134.252;2023-05-12T13:06:30;100655.47;;;10.49;49.57
46846;BME280;33947;46.804;134.252;2023-05-12T13:09:34;100635.31;;;10.42;49.49
46846;BME280;33947;46.804;134.252;2023-05-12T13:12:38;100647.75;;;10.40;49.82
46846;BME280;33947;46.804;134.252;2023-05-12T13:15:42;100639.00;;;10.35;50.04
46846;BME280;33947;46.804;134.252;2023-05-12T13:18:46;100633.47;;;10.44;49.33
46846;BME280;33947;46.804;134.252;2023-05-12T13:21:54;100628.22;;;10.42;49.50
46846;BME280;33947;46.804;134.252;2023-05-12T13:24:58;100620.28;;;10.41;49.61
46846;BME280;33947;46.804;134.252;2023-05-12T13:28:05;100618.94;;;10.21;50.62
46846;BME280;33947;46.804;134.252;2023-05-12T13:31:10;100621.09;;;9.66;54.61
46846;BME280;33947;46.804;134.252;2023-05-12T13:34:14;100619.31;;;9.68;52.01
46846;BME280;33947;46.804;134.252;2023-05-12T13:37:18;100624.66;;;9.65;52.07
46846;BME280;33947;46.804;134.252;2023-05-12T13:40:22;100622.97;;;9.61;52.62
46846;BME280;33947;46.804;134.252;2023-05-12T13:43:27;100615.91;;;9.61;52.83
46846;BME280;33947;46.804;134.252;2023-05-12T13:46:31;100620.44;;;9.56;53.23
46846;BME280;33947;46.804;134.252;2023-05-12T13:49:35;100627.97;;;9.32;54.29
46846;BME280;33947;46.804;134.252;2023-05-12T13:52:39;100623.56;;;9.33;54.31
46846;BME280;33947;46.804;134.252;2023-05-12T13:55:44;100617.22;;;9.40;54.48
46846;BME280;33947;46.804;134.252;2023-05-12T13:58:48;100623.31;;;9.45;54.52
46846;BME280;33947;46.804;134.252;2023-05-12T14:01:52;100627.19;;;9.29;55.36
46846;BME280;33947;46.804;134.252;2023-05-12T14:04:57;100627.22;;;9.25;55.46
46846;BME280;33947;46.804;134.252;2023-05-12T14:08:01;100632.22;;;9.41;54.98
46846;BME280;33947;46.804;134.252;2023-05-12T14:11:08;100640.94;;;9.48;54.68
46846;BME280;33947;46.804;134.252;2023-05-12T14:14:13;100653.44;;;9.41;54.97
46846;BME280;33947;46.804;134.252;2023-05-12T14:17:18;100646.59;;;9.31;55.22
46846;BME280;33947;46.804;134.252;2023-05-12T14:20:22;100654.31;;;9.41;54.93
46846;BME280;33947;46.804;134.252;2023-05-12T14:23:26;100654.28;;;9.43;54.75
46846;BME280;33947;46.804;134.252;2023-05-12T14:26:30;100651.06;;;9.71;54.04
46846;BME280;33947;46.804;134.252;2023-05-12T14:29:35;100642.28;;;9.69;54.27
46846;BME280;33947;46.804;134.252;2023-05-12T14:32:42;100651.16;;;9.66;54.66
46846;BME280;33947;46.804;134.252;2023-05-12T14:35:48;100666.59;;;9.46;55.26
46846;BME280;33947;46.804;134.252;2023-05-12T14:39:09;100670.47;;;9.29;55.46
46846;BME280;33947;46.804;134.252;2023-05-12T14:42:13;100644.94;;;9.23;55.50
46846;BME280;33947;46.804;134.252;2023-05-12T14:45:17;100664.59;;;9.13;56.13
46846;BME280;33947;46.804;134.252;2023-05-12T14:48:22;100649.97;;;8.92;57.02
46846;BME280;33947;46.804;134.252;2023-05-12T14:51:28;100659.59;;;8.97;56.71
46846;BME280;33947;46.804;134.252;2023-05-12T14:54:35;100678.16;;;8.96;56.71
46846;BME280;33947;46.804;134.252;2023-05-12T14:57:42;100694.88;;;9.00;56.92
46846;BME280;33947;46.804;134.252;2023-05-12T15:00:49;100717.31;;;8.78;57.60
46846;BME280;33947;46.804;134.252;2023-05-12T15:03:54;100710.97;;;8.87;57.87
46846;BME280;33947;46.804;134.252;2023-05-12T15:06:58;100711.41;;;8.62;58.68
46846;BME280;33947;46.804;134.252;2023-05-12T15:10:03;100715.78;;;8.63;58.75
46846;BME280;33947;46.804;134.252;2023-05-12T15:13:08;100708.75;;;8.61;58.72
46846;BME280;33947;46.804;134.252;2023-05-12T15:16:12;100696.31;;;8.67;57.80
46846;BME280;33947;46.804;134.252;2023-05-12T15:19:16;100707.03;;;9.10;56.31
46846;BME280;33947;46.804;134.252;2023-05-12T15:22:20;100710.34;;;9.68;53.92
46846;BME280;33947;46.804;134.252;2023-05-12T15:25:25;100703.66;;;9.93;52.12
46846;BME280;33947;46.804;134.252;2023-05-12T15:28:29;100712.91;;;10.16;51.26
46846;BME280;33947;46.804;134.252;2023-05-12T15:31:34;100710.19;;;10.17;51.43
46846;BME280;33947;46.804;134.252;2023-05-12T15:34:43;100700.84;;;10.01;51.03
46846;BME280;33947;46.804;134.252;2023-05-12T15:37:53;100715.03;;;9.98;52.02
46846;BME280;33947;46.804;134.252;2023-05-12T15:40:58;100719.75;;;9.83;52.00
46846;BME280;33947;46.804;134.252;2023-05-12T15:44:02;100703.44;;;9.61;53.11
46846;BME280;33947;46.804;134.252;2023-05-12T15:47:06;100715.69;;;10.09;50.98
46846;BME280;33947;46.804;134.252;2023-05-12T15:50:10;100716.25;;;10.24;50.47
46846;BME280;33947;46.804;134.252;2023-05-12T15:53:14;100708.19;;;10.27;50.09
46846;BME280;33947;46.804;134.252;2023-05-12T15:56:21;100702.50;;;10.06;51.07
46846;BME280;33947;46.804;134.252;2023-05-12T15:59:25;100706.06;;;10.05;51.34
46846;BME280;33947;46.804;134.252;2023-05-12T16:02:33;100706.97;;;9.60;53.40
46846;BME280;33947;46.804;134.252;2023-05-12T16:05:37;100698.91;;;9.66;52.65
46846;BME280;33947;46.804;134.252;2023-05-12T16:08:43;100713.72;;;9.77;52.24